Weather at Douala International Airport

Public forecast

Using degrees Celsius for public forecast. Weather courtesy of forecast.io.

Current aviation weather report (METAR) for Douala International Airport

Report is more than 6 hours old.

2022/11/14 12:00 (retrieved 2 years ago)

FKKD 141200Z VRB02KT 9999 TS FEW005 BKN013 SCT015CB 27/23 Q1011 TEMPO 4000 TSRA

Aviation forecast (TAF) for Douala International Airport

Forecast is more than 12 hours old.

2023/02/22 12:18 (retrieved 1 year ago)

TAF TAF FKKD 221100Z 2212/2318 VRB03KT 6000 BKN016 FEW020CB TEMPO 2212/2216 4000 HZ PROB30 TEMPO 2217/2222 4000 TSRA BKN013 FEW016CB BECMG 2220/2222 BKN013 FEW016CB TEMPO 2304/2307 2000 BR